Terminal Aerodrome Forecast
Issued by NWS

Home | Current Version | Previous Version | Text Only | Print | Product List | Glossary On
Versions: 1 2 3 4 5 6 7 8 9 10 11 12 13 14 15 16 17 18 19 20 21 22 23 24
323
FTUS43 KPAH 220526
TAFCGI
TAF
KCGI 220526Z 2206/2306 VRB03KT P6SM BKN015
     FM220730 00000KT 4SM BR OVC018
     FM220900 00000KT 1SM BR SCT008
      TEMPO 2210/2214 1/4SM FG
     FM221600 18004KT P6SM BKN020
     FM222000 19005KT P6SM SCT090=

USA.gov is the U.S. government's official web portal to all federal, state and local government web resources and services.